createdAt,value
2018-01-16T00:00:20.612Z,99.99
2018-01-16T00:01:29.897Z,99.99
2018-01-16T00:02:39.086Z,99.99
2018-01-16T00:03:48.809Z,99.99
2018-01-16T00:04:58.263Z,99.99
2018-01-16T00:06:07.726Z,99.99
2018-01-16T00:07:17.181Z,99.99
2018-01-16T00:08:26.416Z,99.99
2018-01-16T00:09:36.163Z,99.99
2018-01-16T00:10:46.154Z,99.99
2018-01-16T00:11:55.608Z,99.99
2018-01-16T00:13:05.078Z,99.99
2018-01-16T00:14:14.269Z,99.99
2018-01-16T00:15:23.992Z,99.99
2018-01-16T00:16:33.207Z,99.99
2018-01-16T00:17:43.140Z,99.99
2018-01-16T00:18:53.261Z,99.99
2018-01-16T00:20:02.523Z,99.99
2018-01-16T00:21:12.447Z,99.99
2018-01-16T00:22:21.923Z,99.99
2018-01-16T00:23:31.148Z,99.99
2018-01-16T00:24:40.874Z,99.99
2018-01-16T00:25:50.326Z,99.99
2018-01-16T00:26:59.776Z,99.99
2018-01-16T00:28:09.576Z,99.99
2018-01-16T00:29:19.024Z,99.99
2018-01-16T00:30:29.001Z,99.99
2018-01-16T00:31:38.750Z,99.99
2018-01-16T00:32:48.198Z,99.99
2018-01-16T00:33:57.382Z,99.99
2018-01-16T00:35:07.352Z,99.99
2018-01-16T00:36:16.947Z,99.99
2018-01-16T00:37:26.394Z,99.99
2018-01-16T00:38:36.368Z,99.99
2018-01-16T00:39:45.812Z,99.99
2018-01-16T00:40:54.771Z,99.99
2018-01-16T00:42:03.956Z,99.99
2018-01-16T00:43:13.404Z,99.99
2018-01-16T00:44:22.687Z,99.99
2018-01-16T00:45:31.862Z,99.99
2018-01-16T00:46:41.313Z,99.99
2018-01-16T00:47:50.498Z,99.99
2018-01-16T00:48:59.691Z,99.99
2018-01-16T00:50:08.888Z,99.99
2018-01-16T00:51:18.348Z,99.99
2018-01-16T00:52:28.075Z,99.99
2018-01-16T00:53:37.838Z,99.99
2018-01-16T00:54:47.556Z,99.99
2018-01-16T00:55:57.269Z,99.99
2018-01-16T00:57:06.726Z,99.99
2018-01-16T00:58:16.711Z,99.99
2018-01-16T00:59:25.365Z,99.99
2018-01-16T01:00:34.359Z,99.99
2018-01-16T01:01:44.362Z,99.99
2018-01-16T01:02:54.374Z,99.99
2018-01-16T01:04:03.560Z,99.99
2018-01-16T01:05:12.746Z,99.99
2018-01-16T01:06:22.769Z,99.99
2018-01-16T01:07:32.547Z,99.99
2018-01-16T01:08:42.004Z,99.99
2018-01-16T01:09:51.194Z,99.99
2018-01-16T01:11:01.064Z,99.99
2018-01-16T01:12:10.675Z,99.99
2018-01-16T01:13:20.716Z,99.99
2018-01-16T01:14:30.426Z,99.99
2018-01-16T01:15:39.616Z,99.99
2018-01-16T01:16:49.065Z,99.99
2018-01-16T01:17:58.520Z,99.99
2018-01-16T01:19:08.501Z,99.99
2018-01-16T01:20:18.215Z,99.99
2018-01-16T01:21:27.662Z,99.99
2018-01-16T01:22:37.116Z,99.99
2018-01-16T01:23:47.094Z,99.99
2018-01-16T01:24:56.285Z,99.99
2018-01-16T01:26:05.749Z,99.99
2018-01-16T01:27:14.934Z,99.99
2018-01-16T01:28:24.117Z,99.99
2018-01-16T01:29:33.344Z,99.99
2018-01-16T01:30:42.528Z,99.99
2018-01-16T01:31:51.449Z,99.99
2018-01-16T01:33:00.898Z,99.99
2018-01-16T01:34:10.395Z,99.99
2018-01-16T01:35:19.856Z,99.99
2018-01-16T01:36:29.597Z,99.99
2018-01-16T01:37:39.624Z,99.99
2018-01-16T01:38:48.910Z,99.99
2018-01-16T01:39:58.628Z,99.99
2018-01-16T01:41:08.079Z,99.99
2018-01-16T01:42:17.793Z,99.99
2018-01-16T01:43:27.384Z,99.99
2018-01-16T01:44:37.115Z,99.99
2018-01-16T01:45:46.299Z,99.99
2018-01-16T01:46:56.053Z,99.99
2018-01-16T01:48:05.771Z,99.99
2018-01-16T01:49:15.301Z,99.99
2018-01-16T01:50:24.752Z,99.99
2018-01-16T01:51:34.738Z,99.99
2018-01-16T01:52:44.719Z,99.99
2018-01-16T01:53:53.904Z,99.99
2018-01-16T01:55:03.354Z,99.99
2018-01-16T01:56:12.543Z,99.99
2018-01-16T01:57:22.076Z,99.99
2018-01-16T01:58:31.408Z,99.99
2018-01-16T01:59:40.595Z,99.99
2018-01-16T02:00:50.189Z,99.99
2018-01-16T02:01:59.633Z,99.99
2018-01-16T02:03:08.552Z,99.99
2018-01-16T02:04:18.531Z,99.99
2018-01-16T02:05:27.457Z,99.99
2018-01-16T02:06:36.903Z,99.99
2018-01-16T02:07:46.094Z,99.99
2018-01-16T02:08:55.862Z,99.99
2018-01-16T02:10:05.584Z,99.99
2018-01-16T02:11:15.401Z,99.99
2018-01-16T02:12:25.374Z,99.99
2018-01-16T02:13:34.890Z,99.99
2018-01-16T02:14:44.603Z,99.99
2018-01-16T02:15:54.056Z,99.99
2018-01-16T02:17:03.506Z,99.99
2018-01-16T02:18:13.644Z,99.99
2018-01-16T02:19:23.360Z,99.99
2018-01-16T02:20:32.283Z,99.99
2018-01-16T02:21:42.266Z,99.99
2018-01-16T02:22:51.982Z,99.99
2018-01-16T02:24:01.862Z,99.99
2018-01-16T02:25:11.321Z,99.99
2018-01-16T02:26:20.247Z,99.99
2018-01-16T02:27:29.968Z,99.99
2018-01-16T02:28:39.424Z,99.99
2018-01-16T02:29:49.137Z,99.99
2018-01-16T02:30:58.328Z,99.99
2018-01-16T02:32:07.519Z,99.99
2018-01-16T02:33:17.514Z,99.99
2018-01-16T02:34:26.968Z,99.99
2018-01-16T02:35:36.960Z,99.99
2018-01-16T02:36:46.688Z,99.99
2018-01-16T02:37:56.723Z,99.99
2018-01-16T02:39:06.728Z,99.99
2018-01-16T02:40:16.190Z,99.99
2018-01-16T02:41:26.225Z,99.99
2018-01-16T02:42:35.432Z,99.99
2018-01-16T02:43:45.175Z,99.99
2018-01-16T02:44:54.901Z,99.99
2018-01-16T02:46:04.656Z,99.99
2018-01-16T02:47:13.858Z,99.99
2018-01-16T02:48:23.593Z,99.99
2018-01-16T02:49:33.316Z,99.99
2018-01-16T02:50:42.801Z,99.99
2018-01-16T02:51:52.541Z,99.99
2018-01-16T02:53:01.891Z,99.99
2018-01-16T02:54:11.621Z,99.99
2018-01-16T02:55:20.810Z,99.99
2018-01-16T02:56:30.263Z,99.99
2018-01-16T02:57:39.725Z,99.99
2018-01-16T02:58:48.915Z,99.99
2018-01-16T02:59:58.650Z,99.99
2018-01-16T03:01:08.109Z,99.99
2018-01-16T03:02:18.101Z,99.99
2018-01-16T03:03:28.106Z,99.99
2018-01-16T03:04:37.561Z,99.99
2018-01-16T03:05:47.280Z,99.99
2018-01-16T03:06:56.994Z,99.99
2018-01-16T03:08:06.184Z,99.99
2018-01-16T03:09:15.635Z,99.99
2018-01-16T03:10:25.376Z,99.99
2018-01-16T03:11:34.834Z,99.99
2018-01-16T03:12:44.590Z,99.99
2018-01-16T03:13:54.060Z,99.99
2018-01-16T03:15:03.512Z,99.99
2018-01-16T03:16:12.975Z,99.99
2018-01-16T03:17:22.176Z,99.99
2018-01-16T03:18:31.381Z,99.99
2018-01-16T03:19:41.109Z,99.99
2018-01-16T03:20:50.034Z,99.99
2018-01-16T03:22:00.017Z,99.99
2018-01-16T03:23:09.464Z,99.99
2018-01-16T03:24:19.177Z,99.99
2018-01-16T03:25:28.366Z,99.99
2018-01-16T03:26:37.558Z,99.99
2018-01-16T03:27:46.745Z,99.99
2018-01-16T03:28:56.192Z,99.99
2018-01-16T03:30:05.383Z,99.99
2018-01-16T03:31:15.385Z,99.99
2018-01-16T03:32:25.123Z,99.99
2018-01-16T03:33:34.986Z,99.99
2018-01-16T03:34:44.172Z,99.99
2018-01-16T03:35:53.905Z,99.99
2018-01-16T03:37:03.093Z,99.99
2018-01-16T03:38:13.079Z,99.99
2018-01-16T03:39:22.536Z,99.99
2018-01-16T03:40:31.995Z,99.99
2018-01-16T03:41:41.971Z,99.99
2018-01-16T03:42:50.894Z,99.99
2018-01-16T03:44:00.619Z,99.99
2018-01-16T03:45:09.543Z,99.99
2018-01-16T03:46:19.262Z,99.99
2018-01-16T03:47:28.719Z,99.99
2018-01-16T03:48:38.188Z,99.99
2018-01-16T03:49:47.642Z,99.99
2018-01-16T03:50:57.360Z,99.99
2018-01-16T03:52:06.820Z,99.99
2018-01-16T03:53:16.011Z,99.99
2018-01-16T03:54:25.992Z,99.99
2018-01-16T03:55:35.714Z,99.99
2018-01-16T03:56:45.321Z,99.99
2018-01-16T03:57:54.850Z,99.99
2018-01-16T03:59:04.042Z,99.99
2018-01-16T04:00:13.234Z,99.99
2018-01-16T04:01:23.222Z,99.99
2018-01-16T04:02:32.689Z,99.99
2018-01-16T04:03:42.413Z,99.99
2018-01-16T04:04:52.335Z,99.99
2018-01-16T04:06:02.121Z,99.99
2018-01-16T04:07:11.663Z,99.99
2018-01-16T04:08:21.129Z,99.99
2018-01-16T04:09:30.583Z,99.99
2018-01-16T04:10:40.298Z,99.99
2018-01-16T04:11:49.524Z,99.99
2018-01-16T04:12:59.502Z,99.99
2018-01-16T04:14:09.379Z,99.99
2018-01-16T04:15:18.568Z,99.99
2018-01-16T04:16:28.033Z,99.99
2018-01-16T04:17:37.491Z,99.99
2018-01-16T04:18:47.204Z,99.99
2018-01-16T04:19:56.941Z,99.99
2018-01-16T04:21:06.402Z,99.99
2018-01-16T04:22:16.116Z,99.99
2018-01-16T04:23:25.309Z,99.99
2018-01-16T04:24:34.764Z,99.99
2018-01-16T04:25:44.216Z,99.99
2018-01-16T04:26:53.671Z,99.99
2018-01-16T04:28:03.390Z,99.99
2018-01-16T04:29:12.053Z,99.99
2018-01-16T04:30:20.978Z,99.99
2018-01-16T04:31:30.436Z,99.99
2018-01-16T04:32:40.419Z,99.99
2018-01-16T04:33:49.890Z,99.99
2018-01-16T04:34:59.087Z,99.99
2018-01-16T04:36:08.822Z,99.99
2018-01-16T04:37:18.695Z,99.99
2018-01-16T04:38:28.419Z,99.99
2018-01-16T04:39:38.400Z,99.99
2018-01-16T04:40:48.386Z,99.99
2018-01-16T04:41:58.113Z,99.99
2018-01-16T04:43:07.834Z,99.99
2018-01-16T04:44:17.279Z,99.99
2018-01-16T04:45:27.012Z,99.99
2018-01-16T04:46:35.936Z,99.99
2018-01-16T04:47:45.652Z,99.99
2018-01-16T04:48:54.839Z,99.99
2018-01-16T04:50:04.560Z,99.99
2018-01-16T04:51:13.747Z,99.99
2018-01-16T04:52:23.473Z,99.99
2018-01-16T04:53:33.189Z,99.99
2018-01-16T04:54:43.084Z,99.99
2018-01-16T04:55:52.802Z,99.99
2018-01-16T04:57:02.576Z,99.99
2018-01-16T04:58:12.560Z,99.99
2018-01-16T04:59:22.278Z,99.99
2018-01-16T05:00:31.998Z,99.99
2018-01-16T05:01:41.449Z,99.99
2018-01-16T05:02:51.164Z,99.99
2018-01-16T05:04:00.881Z,99.99
2018-01-16T05:05:10.598Z,99.99
2018-01-16T05:06:20.049Z,99.99
2018-01-16T05:07:29.501Z,99.99
2018-01-16T05:08:38.954Z,99.99
2018-01-16T05:09:48.723Z,99.99
2018-01-16T05:10:58.183Z,99.99
2018-01-16T05:12:07.786Z,99.99
2018-01-16T05:13:16.979Z,99.99
2018-01-16T05:14:26.444Z,99.99
2018-01-16T05:15:35.378Z,99.99
2018-01-16T05:16:44.567Z,99.99
2018-01-16T05:17:54.024Z,99.99
2018-01-16T05:19:03.214Z,99.99
2018-01-16T05:20:12.665Z,99.99
2018-01-16T05:21:21.855Z,99.99
2018-01-16T05:22:31.307Z,99.99
2018-01-16T05:23:41.024Z,99.99
2018-01-16T05:24:50.482Z,99.99
2018-01-16T05:26:00.521Z,99.99
2018-01-16T05:27:10.266Z,99.99
2018-01-16T05:28:19.723Z,99.99
2018-01-16T05:29:29.174Z,99.99
2018-01-16T05:30:38.655Z,99.99
2018-01-16T05:31:48.377Z,99.99
2018-01-16T05:32:58.367Z,99.99
2018-01-16T05:34:07.556Z,99.99
2018-01-16T05:35:16.749Z,99.99
2018-01-16T05:36:26.727Z,99.99
2018-01-16T05:37:36.180Z,99.99
2018-01-16T05:38:46.158Z,99.99
2018-01-16T05:39:55.349Z,99.99
2018-01-16T05:41:05.100Z,99.99
2018-01-16T05:42:14.816Z,99.99
2018-01-16T05:43:24.004Z,99.99
2018-01-16T05:44:33.731Z,99.99
2018-01-16T05:45:43.210Z,99.99
2018-01-16T05:46:53.188Z,99.99
2018-01-16T05:48:02.909Z,99.99
2018-01-16T05:49:12.414Z,99.99
2018-01-16T05:50:22.403Z,99.99
2018-01-16T05:51:32.133Z,99.99
2018-01-16T05:52:41.590Z,99.99
2018-01-16T05:53:51.313Z,99.99
2018-01-16T05:55:00.769Z,99.99
2018-01-16T05:56:10.235Z,99.99
2018-01-16T05:57:19.706Z,99.99
2018-01-16T05:58:29.433Z,99.99
2018-01-16T05:59:39.457Z,99.99
2018-01-16T06:00:48.991Z,99.99
2018-01-16T06:01:58.714Z,99.99
2018-01-16T06:03:08.434Z,99.99
2018-01-16T06:04:17.895Z,99.99
2018-01-16T06:05:27.611Z,99.99
2018-01-16T06:06:37.327Z,99.99
2018-01-16T06:07:47.049Z,99.99
2018-01-16T06:08:57.031Z,99.99
2018-01-16T06:10:06.491Z,99.99
2018-01-16T06:11:15.954Z,99.99
2018-01-16T06:12:25.402Z,99.99
2018-01-16T06:13:34.862Z,99.99
2018-01-16T06:14:44.588Z,99.99
2018-01-16T06:15:53.623Z,99.99
2018-01-16T06:17:03.354Z,99.99
2018-01-16T06:18:12.553Z,99.99
2018-01-16T06:19:21.750Z,99.99
2018-01-16T06:20:31.479Z,99.99
2018-01-16T06:21:40.939Z,99.99
2018-01-16T06:22:50.395Z,99.99
2018-01-16T06:24:00.168Z,99.99
2018-01-16T06:25:09.888Z,99.99
2018-01-16T06:26:19.607Z,99.99
2018-01-16T06:27:29.594Z,99.99
2018-01-16T06:28:39.577Z,99.99
2018-01-16T06:29:48.501Z,99.99
2018-01-16T06:30:58.484Z,99.99
2018-01-16T06:32:08.221Z,99.99
2018-01-16T06:33:17.947Z,99.99
2018-01-16T06:34:27.137Z,99.99
2018-01-16T06:35:36.850Z,99.99
2018-01-16T06:36:46.305Z,99.99
2018-01-16T06:37:55.760Z,99.99
2018-01-16T06:39:05.765Z,99.99
2018-01-16T06:40:15.484Z,99.99
2018-01-16T06:41:24.942Z,99.99
2018-01-16T06:42:34.693Z,99.99
2018-01-16T06:43:44.362Z,99.99
2018-01-16T06:44:53.822Z,99.99
2018-01-16T06:46:03.548Z,99.99
2018-01-16T06:47:13.299Z,99.99
2018-01-16T06:48:22.885Z,99.99
2018-01-16T06:49:32.079Z,99.99
2018-01-16T06:50:41.611Z,99.99
2018-01-16T06:51:51.092Z,99.99
2018-01-16T06:52:59.787Z,99.99
2018-01-16T06:54:09.270Z,99.99
2018-01-16T06:55:18.739Z,99.99
2018-01-16T06:56:28.012Z,99.99
2018-01-16T06:57:37.507Z,99.99
2018-01-16T06:58:47.492Z,99.99
2018-01-16T06:59:57.216Z,99.99
2018-01-16T07:01:06.938Z,99.99
2018-01-16T07:02:16.742Z,99.99
2018-01-16T07:03:26.194Z,99.99
2018-01-16T07:04:35.385Z,99.99
2018-01-16T07:05:45.374Z,99.99
2018-01-16T07:06:55.361Z,99.99
2018-01-16T07:08:04.564Z,99.99
2018-01-16T07:09:13.757Z,99.99
2018-01-16T07:10:23.494Z,99.99
2018-01-16T07:11:32.958Z,99.99
2018-01-16T07:12:42.455Z,99.99
2018-01-16T07:13:51.910Z,99.99
2018-01-16T07:15:01.907Z,99.99
2018-01-16T07:16:11.362Z,99.99
2018-01-16T07:17:20.824Z,99.99
2018-01-16T07:18:30.552Z,99.99
2018-01-16T07:19:39.742Z,99.99
2018-01-16T07:20:48.933Z,99.99
2018-01-16T07:21:58.973Z,99.99
2018-01-16T07:23:08.169Z,99.99
2018-01-16T07:24:17.680Z,99.99
2018-01-16T07:25:27.138Z,99.99
2018-01-16T07:26:36.599Z,99.99
2018-01-16T07:27:46.588Z,99.99
2018-01-16T07:28:56.043Z,99.99
2018-01-16T07:30:05.813Z,99.99
2018-01-16T07:31:15.284Z,99.99
2018-01-16T07:32:24.494Z,99.99
2018-01-16T07:33:34.220Z,99.99
2018-01-16T07:34:43.942Z,99.99
2018-01-16T07:35:53.523Z,99.99
2018-01-16T07:37:03.295Z,99.99
2018-01-16T07:38:13.039Z,99.99
2018-01-16T07:39:22.757Z,99.99
2018-01-16T07:40:32.216Z,99.99
2018-01-16T07:41:41.414Z,99.99
2018-01-16T07:42:51.406Z,99.99
2018-01-16T07:44:01.125Z,99.99
2018-01-16T07:45:11.118Z,99.99
2018-01-16T07:46:21.107Z,99.99
2018-01-16T07:47:31.100Z,99.99
2018-01-16T07:48:40.856Z,99.99
2018-01-16T07:49:50.581Z,99.99
2018-01-16T07:51:00.047Z,99.99
2018-01-16T07:52:09.873Z,99.99
2018-01-16T07:53:19.417Z,99.99
2018-01-16T07:54:29.298Z,99.99
2018-01-16T07:55:38.751Z,99.99
2018-01-16T07:56:48.201Z,99.99
2018-01-16T07:57:57.128Z,99.99
2018-01-16T07:59:06.862Z,99.99
2018-01-16T08:00:16.331Z,99.99
2018-01-16T08:01:25.518Z,99.99
2018-01-16T08:02:35.236Z,99.99
2018-01-16T08:03:44.689Z,99.99
2018-01-16T08:04:54.676Z,99.99
2018-01-16T08:06:04.540Z,99.99
2018-01-16T08:07:13.998Z,99.99
2018-01-16T08:08:23.485Z,99.99
2018-01-16T08:09:33.205Z,99.99
2018-01-16T08:10:42.968Z,99.99
2018-01-16T08:11:52.680Z,99.99
2018-01-16T08:13:01.866Z,99.99
2018-01-16T08:14:11.669Z,99.99
2018-01-16T08:15:20.850Z,99.99
2018-01-16T08:16:30.573Z,99.99
2018-01-16T08:17:39.753Z,99.99
2018-01-16T08:18:48.954Z,99.99
2018-01-16T08:19:58.408Z,99.99
2018-01-16T08:21:07.862Z,99.99
2018-01-16T08:22:17.381Z,99.99
2018-01-16T08:23:26.832Z,99.99
2018-01-16T08:24:36.287Z,99.99
2018-01-16T08:25:46.003Z,99.99
2018-01-16T08:26:55.738Z,99.99
2018-01-16T08:28:05.328Z,99.99
2018-01-16T08:29:15.309Z,99.99
2018-01-16T08:30:24.859Z,99.99
2018-01-16T08:31:34.613Z,99.99
2018-01-16T08:32:44.334Z,99.99
2018-01-16T08:33:53.525Z,99.99
2018-01-16T08:35:02.735Z,99.99
2018-01-16T08:36:12.750Z,99.99
2018-01-16T08:37:22.250Z,99.99
2018-01-16T08:38:31.434Z,99.99
2018-01-16T08:39:40.908Z,99.99
2018-01-16T08:40:50.659Z,99.99
2018-01-16T08:42:00.377Z,99.99
2018-01-16T08:43:09.771Z,99.99
2018-01-16T08:44:18.564Z,99.99
2018-01-16T08:45:27.817Z,99.99
2018-01-16T08:46:36.542Z,99.99
2018-01-16T08:47:45.995Z,99.99
2018-01-16T08:48:55.472Z,99.99
2018-01-16T08:50:05.198Z,99.99
2018-01-16T08:51:14.672Z,99.99
2018-01-16T08:52:23.914Z,99.99
2018-01-16T08:53:33.942Z,99.99
2018-01-16T08:54:43.924Z,99.99
2018-01-16T08:55:53.118Z,99.99
2018-01-16T08:57:02.858Z,99.99
2018-01-16T08:58:12.571Z,99.99
2018-01-16T08:59:22.031Z,99.99
2018-01-16T09:00:31.529Z,99.99
2018-01-16T09:01:41.284Z,99.99
2018-01-16T09:02:50.810Z,99.99
2018-01-16T09:04:00.861Z,99.99
2018-01-16T09:05:10.340Z,99.99
2018-01-16T09:06:19.531Z,99.99
2018-01-16T09:07:28.731Z,99.99
2018-01-16T09:08:38.196Z,99.99
2018-01-16T09:09:47.126Z,99.99
2018-01-16T09:10:56.604Z,99.99
2018-01-16T09:12:05.794Z,99.99
2018-01-16T09:13:15.787Z,99.99
2018-01-16T09:14:25.532Z,99.99
2018-01-16T09:15:34.194Z,99.99
2018-01-16T09:16:43.653Z,99.99
2018-01-16T09:17:53.113Z,99.99
2018-01-16T09:19:03.131Z,99.99
2018-01-16T09:20:12.872Z,99.99
2018-01-16T09:21:22.329Z,99.99
2018-01-16T09:22:32.046Z,99.99
2018-01-16T09:23:41.805Z,99.99
2018-01-16T09:24:51.594Z,99.99
2018-01-16T09:26:01.617Z,99.99
2018-01-16T09:27:11.075Z,99.99
2018-01-16T09:28:20.296Z,99.21
2018-01-16T09:29:30.391Z,98.69
2018-01-16T09:30:40.569Z,99.59
2018-01-16T09:31:49.758Z,99.99
2018-01-16T09:32:59.221Z,99.99
2018-01-16T09:34:08.687Z,97.31
2018-01-16T09:35:18.402Z,97.78
2018-01-16T09:36:28.167Z,95.7
2018-01-16T09:37:38.159Z,94.18
2018-01-16T09:38:47.353Z,93.13
2018-01-16T09:39:57.076Z,93.41
2018-01-16T09:41:06.848Z,93.51
2018-01-16T09:42:16.589Z,93.37
2018-01-16T09:43:26.308Z,96.36
2018-01-16T09:44:35.500Z,99.99
2018-01-16T09:45:45.399Z,99.99
2018-01-16T09:46:55.201Z,99.99
2018-01-16T09:48:05.356Z,99.99
2018-01-16T09:49:15.540Z,99.99
2018-01-16T09:50:24.870Z,99.99
2018-01-16T09:51:33.848Z,99.99
2018-01-16T09:52:43.449Z,99.99
2018-01-16T09:53:53.232Z,99.99
2018-01-16T09:55:02.963Z,99.99
2018-01-16T09:56:12.680Z,99.99
2018-01-16T09:57:22.141Z,99.99
2018-01-16T09:58:31.609Z,99.99
2018-01-16T09:59:41.598Z,99.99
2018-01-16T10:00:50.790Z,99.99
2018-01-16T10:02:00.510Z,99.99
2018-01-16T10:03:09.961Z,99.99
2018-01-16T10:04:19.722Z,99.99
2018-01-16T10:05:29.494Z,99.99
2018-01-16T10:06:39.505Z,99.99
2018-01-16T10:07:49.323Z,99.99
2018-01-16T10:08:58.516Z,99.99
2018-01-16T10:10:08.242Z,99.99
2018-01-16T10:11:17.803Z,99.99
2018-01-16T10:12:27.001Z,99.99
2018-01-16T10:13:36.460Z,99.99
2018-01-16T10:14:45.913Z,99.99
2018-01-16T10:15:55.661Z,99.99
2018-01-16T10:17:05.113Z,99.99
2018-01-16T10:18:14.560Z,99.99
2018-01-16T10:19:24.092Z,99.99
2018-01-16T10:20:33.811Z,99.99
2018-01-16T10:21:43.005Z,99.99
2018-01-16T10:22:52.722Z,99.99
2018-01-16T10:24:02.474Z,99.99
2018-01-16T10:25:11.937Z,99.99
2018-01-16T10:26:21.404Z,99.99
2018-01-16T10:27:30.604Z,99.99
2018-01-16T10:28:40.095Z,99.99
2018-01-16T10:29:49.298Z,99.99
2018-01-16T10:30:59.030Z,99.99
2018-01-16T10:32:07.958Z,99.99
2018-01-16T10:33:17.704Z,99.99
2018-01-16T10:34:27.202Z,99.99
2018-01-16T10:35:36.924Z,99.99
2018-01-16T10:36:46.703Z,99.99
2018-01-16T10:37:56.162Z,99.99
2018-01-16T10:39:06.148Z,99.99
2018-01-16T10:40:15.990Z,99.99
2018-01-16T10:41:25.179Z,99.99
2018-01-16T10:42:34.634Z,99.99
2018-01-16T10:43:44.368Z,99.99
2018-01-16T10:44:53.840Z,99.99
2018-01-16T10:46:03.860Z,99.99
2018-01-16T10:47:13.327Z,99.99
2018-01-16T10:48:23.079Z,99.99
2018-01-16T10:49:32.812Z,99.99
2018-01-16T10:50:42.547Z,99.99
2018-01-16T10:51:51.750Z,99.99
2018-01-16T10:53:01.763Z,99.99
2018-01-16T10:54:11.754Z,99.99
2018-01-16T10:55:21.752Z,99.99
2018-01-16T10:56:30.947Z,99.99
2018-01-16T10:57:40.679Z,99.99
2018-01-16T10:58:49.896Z,99.99
2018-01-16T10:59:59.099Z,99.99
2018-01-16T11:01:09.208Z,99.99
2018-01-16T11:02:18.918Z,99.99
2018-01-16T11:03:28.459Z,99.99
2018-01-16T11:04:37.923Z,99.99
2018-01-16T11:05:48.063Z,99.99
2018-01-16T11:06:57.909Z,99.99
2018-01-16T11:08:07.721Z,99.99
2018-01-16T11:09:17.188Z,99.99
2018-01-16T11:10:26.947Z,99.99
2018-01-16T11:11:36.151Z,99.99
2018-01-16T11:12:45.363Z,99.99
2018-01-16T11:13:54.562Z,99.99
2018-01-16T11:15:03.752Z,99.99
2018-01-16T11:16:12.721Z,99.99
2018-01-16T11:17:21.901Z,99.99
2018-01-16T11:18:31.358Z,99.99
2018-01-16T11:19:41.389Z,99.99
2018-01-16T11:20:50.850Z,99.99
2018-01-16T11:22:00.565Z,99.99
2018-01-16T11:23:10.298Z,99.99
2018-01-16T11:24:19.746Z,99.99
2018-01-16T11:25:29.457Z,99.99
2018-01-16T11:26:39.209Z,99.99
2018-01-16T11:27:48.404Z,99.99
2018-01-16T11:28:57.884Z,99.99
2018-01-16T11:30:07.109Z,99.99
2018-01-16T11:31:16.302Z,99.99
2018-01-16T11:32:25.769Z,99.99
2018-01-16T11:33:35.748Z,99.99
2018-01-16T11:34:45.460Z,99.99
2018-01-16T11:35:54.916Z,99.99
2018-01-16T11:37:04.378Z,99.99
2018-01-16T11:38:13.569Z,99.99
2018-01-16T11:39:22.756Z,99.99
2018-01-16T11:40:32.214Z,99.99
2018-01-16T11:41:41.674Z,99.99
2018-01-16T11:42:51.131Z,99.99
2018-01-16T11:44:00.853Z,99.99
2018-01-16T11:45:10.841Z,99.99
2018-01-16T11:46:20.298Z,99.99
2018-01-16T11:47:29.752Z,99.99
2018-01-16T11:48:39.477Z,99.99
2018-01-16T11:49:48.927Z,99.99
2018-01-16T11:50:58.905Z,99.99
2018-01-16T11:52:08.877Z,99.99
2018-01-16T11:53:17.822Z,99.99
2018-01-16T11:54:27.268Z,99.99
2018-01-16T11:55:36.463Z,99.99
2018-01-16T11:56:45.920Z,99.99
2018-01-16T11:57:55.380Z,99.99
2018-01-16T11:59:04.841Z,99.99
2018-01-16T12:00:14.030Z,99.99
2018-01-16T12:01:23.489Z,99.99
2018-01-16T12:02:32.419Z,99.99
2018-01-16T12:03:42.401Z,99.99
2018-01-16T12:04:51.853Z,99.99
2018-01-16T12:06:01.574Z,99.99
2018-01-16T12:07:11.562Z,99.99
2018-01-16T12:08:21.022Z,99.99
2018-01-16T12:09:30.474Z,99.99
2018-01-16T12:10:39.934Z,99.99
2018-01-16T12:11:49.682Z,99.99
2018-01-16T12:12:59.703Z,99.99
2018-01-16T12:14:09.462Z,99.99
2018-01-16T12:15:18.953Z,99.99
2018-01-16T12:16:28.669Z,99.99
2018-01-16T12:17:37.896Z,99.99
2018-01-16T12:18:47.391Z,99.99
2018-01-16T12:19:57.394Z,99.99
2018-01-16T12:21:07.163Z,99.99
2018-01-16T12:22:16.352Z,99.99
2018-01-16T12:23:26.104Z,99.99
2018-01-16T12:24:35.821Z,99.99
2018-01-16T12:25:45.011Z,99.99
2018-01-16T12:26:54.464Z,99.99
2018-01-16T12:28:04.052Z,99.99
2018-01-16T12:29:13.774Z,99.99
2018-01-16T12:30:23.493Z,99.99
2018-01-16T12:31:33.208Z,99.99
2018-01-16T12:32:42.398Z,99.99
2018-01-16T12:33:51.597Z,99.99
2018-01-16T12:35:01.062Z,99.99
2018-01-16T12:36:10.544Z,99.99
2018-01-16T12:37:20.018Z,99.99
2018-01-16T12:38:29.233Z,99.99
2018-01-16T12:39:38.692Z,99.99
2018-01-16T12:40:48.434Z,99.99
2018-01-16T12:41:57.892Z,99.99
2018-01-16T12:43:07.400Z,99.99
2018-01-16T12:44:17.139Z,99.99
2018-01-16T12:45:26.869Z,99.99
2018-01-16T12:46:36.067Z,99.99
2018-01-16T12:47:45.825Z,99.99
2018-01-16T12:48:55.914Z,99.99
2018-01-16T12:50:05.683Z,99.99
2018-01-16T12:51:15.133Z,99.99
2018-01-16T12:52:24.597Z,99.99
2018-01-16T12:53:33.840Z,99.99
2018-01-16T12:54:43.368Z,99.99
2018-01-16T12:55:52.828Z,99.99
2018-01-16T12:57:02.584Z,99.99
2018-01-16T12:58:12.310Z,99.99
2018-01-16T12:59:22.090Z,99.99
2018-01-16T13:00:31.022Z,99.99
2018-01-16T13:01:40.739Z,99.99
2018-01-16T13:02:49.934Z,99.99
2018-01-16T13:03:59.444Z,99.99
2018-01-16T13:05:09.428Z,99.99
2018-01-16T13:06:19.154Z,99.99
2018-01-16T13:07:28.701Z,99.99
2018-01-16T13:08:37.896Z,99.99
2018-01-16T13:09:46.830Z,99.99
2018-01-16T13:10:56.056Z,99.99
2018-01-16T13:12:05.780Z,99.99
2018-01-16T13:13:14.969Z,99.99
2018-01-16T13:14:24.648Z,99.99
2018-01-16T13:15:34.388Z,99.99
2018-01-16T13:16:44.110Z,99.99
2018-01-16T13:17:53.618Z,99.99
2018-01-16T13:19:02.845Z,99.99
2018-01-16T13:20:12.581Z,99.99
2018-01-16T13:21:22.310Z,99.99
2018-01-16T13:22:31.773Z,99.99
2018-01-16T13:23:41.045Z,99.99
2018-01-16T13:24:50.314Z,99.99
2018-01-16T13:26:00.308Z,99.99
2018-01-16T13:27:10.076Z,99.99
2018-01-16T13:28:19.807Z,99.99
2018-01-16T13:29:29.002Z,99.99
2018-01-16T13:30:37.693Z,99.99
2018-01-16T13:31:47.157Z,99.99
2018-01-16T13:32:56.881Z,99.99
2018-01-16T13:34:06.602Z,99.99
2018-01-16T13:35:16.360Z,99.99
2018-01-16T13:36:25.376Z,99.99
2018-01-16T13:37:34.926Z,99.99
2018-01-16T13:38:44.387Z,99.99
2018-01-16T13:39:54.365Z,99.99
2018-01-16T13:41:03.554Z,99.99
2018-01-16T13:42:13.051Z,99.99
2018-01-16T13:43:22.029Z,99.99
2018-01-16T13:44:32.134Z,99.99
2018-01-16T13:45:42.118Z,99.99
2018-01-16T13:46:51.574Z,99.99
2018-01-16T13:48:01.298Z,99.99
2018-01-16T13:49:10.761Z,99.99
2018-01-16T13:50:20.215Z,99.99
2018-01-16T13:51:29.951Z,99.99
2018-01-16T13:52:38.887Z,99.99
2018-01-16T13:53:48.611Z,99.99
2018-01-16T13:54:58.334Z,99.99
2018-01-16T13:56:07.790Z,99.99
2018-01-16T13:57:17.540Z,99.99
2018-01-16T13:58:27.293Z,99.99
2018-01-16T13:59:36.749Z,99.99
2018-01-16T14:00:45.947Z,99.99
2018-01-16T14:01:55.424Z,99.99
2018-01-16T14:03:04.389Z,99.99
2018-01-16T14:04:14.190Z,99.99
2018-01-16T14:05:23.662Z,99.99
2018-01-16T14:06:33.386Z,99.99
2018-01-16T14:07:42.858Z,99.99
2018-01-16T14:08:52.319Z,99.99
2018-01-16T14:10:01.782Z,99.99
2018-01-16T14:11:10.980Z,99.99
2018-01-16T14:12:20.710Z,99.99
2018-01-16T14:13:29.959Z,99.99
2018-01-16T14:14:39.673Z,99.99
2018-01-16T14:15:48.600Z,99.99
2018-01-16T14:16:58.585Z,99.99
2018-01-16T14:18:08.300Z,99.99
2018-01-16T14:19:17.751Z,99.99
2018-01-16T14:20:26.947Z,99.99
2018-01-16T14:21:36.928Z,99.99
2018-01-16T14:22:46.116Z,99.99
2018-01-16T14:23:55.868Z,99.99
2018-01-16T14:25:05.702Z,99.99
2018-01-16T14:26:15.433Z,99.99
2018-01-16T14:27:25.438Z,99.99
2018-01-16T14:28:34.953Z,99.99
2018-01-16T14:29:44.402Z,99.99
2018-01-16T14:30:53.865Z,99.99
2018-01-16T14:32:02.795Z,99.99
2018-01-16T14:33:12.518Z,99.99
2018-01-16T14:34:22.309Z,99.99
2018-01-16T14:35:31.500Z,99.99
2018-01-16T14:36:41.482Z,99.99
2018-01-16T14:37:51.021Z,99.99
2018-01-16T14:39:00.737Z,99.99
2018-01-16T14:40:10.189Z,99.99
2018-01-16T14:41:19.125Z,99.99
2018-01-16T14:42:28.319Z,99.99
2018-01-16T14:43:37.769Z,99.99
2018-01-16T14:44:47.792Z,99.99
2018-01-16T14:45:57.215Z,99.99
2018-01-16T14:47:07.158Z,99.99
2018-01-16T14:48:16.477Z,99.99
2018-01-16T14:49:25.868Z,99.99
2018-01-16T14:50:35.426Z,99.99
2018-01-16T14:51:44.897Z,99.99
2018-01-16T14:52:54.345Z,99.99
2018-01-16T14:54:03.630Z,99.99
2018-01-16T14:55:12.945Z,99.99